sensor_id;sensor_type;location;lat;lon;timestamp;pressure;altitude;pressure_sealevel;temperature;humidity
42727;BME280;28372;56.832;60.658;2023-02-28T00:00:26;96581.13;;;1.53;70.21
42727;BME280;28372;56.832;60.658;2023-02-28T00:02:54;96586.22;;;1.59;69.60
42727;BME280;28372;56.832;60.658;2023-02-28T00:05:24;96580.91;;;1.59;67.86
42727;BME280;28372;56.832;60.658;2023-02-28T00:07:52;96579.16;;;1.50;69.43
42727;BME280;28372;56.832;60.658;2023-02-28T00:10:22;96570.25;;;1.59;68.85
42727;BME280;28372;56.832;60.658;2023-02-28T00:12:52;96557.00;;;1.78;62.98
42727;BME280;28372;56.832;60.658;2023-02-28T00:15:21;96558.13;;;1.77;61.53
42727;BME280;28372;56.832;60.658;2023-02-28T00:17:50;96566.97;;;1.81;60.00
42727;BME280;28372;56.832;60.658;2023-02-28T00:20:18;96561.13;;;1.92;59.14
42727;BME280;28372;56.832;60.658;2023-02-28T00:22:51;96553.13;;;1.92;59.14
42727;BME280;28372;56.832;60.658;2023-02-28T00:25:22;96546.69;;;1.93;57.33
42727;BME280;28372;56.832;60.658;2023-02-28T00:27:51;96546.41;;;1.82;58.50
42727;BME280;28372;56.832;60.658;2023-02-28T00:30:21;96540.84;;;1.87;58.82
42727;BME280;28372;56.832;60.658;2023-02-28T00:32:50;96539.09;;;1.95;57.08
42727;BME280;28372;56.832;60.658;2023-02-28T00:35:18;96513.31;;;1.83;56.70
42727;BME280;28372;56.832;60.658;2023-02-28T00:37:47;96513.47;;;1.90;58.36
42727;BME280;28372;56.832;60.658;2023-02-28T00:40:16;96502.81;;;1.90;57.17
42727;BME280;28372;56.832;60.658;2023-02-28T00:42:43;96498.59;;;1.89;57.48
42727;BME280;28372;56.832;60.658;2023-02-28T00:45:11;96500.75;;;1.99;55.02
42727;BME280;28372;56.832;60.658;2023-02-28T00:47:39;96498.69;;;1.93;55.49
42727;BME280;28372;56.832;60.658;2023-02-28T00:50:07;96488.72;;;1.90;54.47
42727;BME280;28372;56.832;60.658;2023-02-28T00:52:36;96484.66;;;1.96;55.33
42727;BME280;28372;56.832;60.658;2023-02-28T00:55:04;96497.81;;;2.04;56.05
42727;BME280;28372;56.832;60.658;2023-02-28T00:57:32;96496.19;;;2.00;54.82
42727;BME280;28372;56.832;60.658;2023-02-28T01:00:00;96499.97;;;1.99;54.83
42727;BME280;28372;56.832;60.658;2023-02-28T01:02:29;96503.94;;;1.89;56.63
42727;BME280;28372;56.832;60.658;2023-02-28T01:04:57;96508.56;;;1.92;55.50
42727;BME280;28372;56.832;60.658;2023-02-28T01:07:25;96500.41;;;1.85;55.77
42727;BME280;28372;56.832;60.658;2023-02-28T01:09:52;96496.72;;;1.90;56.52
42727;BME280;28372;56.832;60.658;2023-02-28T01:12:20;96496.03;;;1.93;55.24
42727;BME280;28372;56.832;60.658;2023-02-28T01:14:47;96486.72;;;1.86;54.34
42727;BME280;28372;56.832;60.658;2023-02-28T01:17:16;96485.25;;;1.89;56.12
42727;BME280;28372;56.832;60.658;2023-02-28T01:19:44;96481.50;;;1.90;56.78
42727;BME280;28372;56.832;60.658;2023-02-28T01:22:11;96488.72;;;1.90;56.98
42727;BME280;28372;56.832;60.658;2023-02-28T01:24:42;96478.47;;;1.92;56.79
42727;BME280;28372;56.832;60.658;2023-02-28T01:27:12;96488.78;;;1.93;57.04
42727;BME280;28372;56.832;60.658;2023-02-28T01:29:39;96483.34;;;2.05;55.99
42727;BME280;28372;56.832;60.658;2023-02-28T01:32:08;96478.38;;;2.04;54.67
42727;BME280;28372;56.832;60.658;2023-02-28T01:34:36;96477.81;;;2.14;53.83
42727;BME280;28372;56.832;60.658;2023-02-28T01:37:04;96462.78;;;2.06;54.27
42727;BME280;28372;56.832;60.658;2023-02-28T01:39:32;96458.66;;;2.09;56.39
42727;BME280;28372;56.832;60.658;2023-02-28T01:41:59;96459.84;;;2.11;55.25
42727;BME280;28372;56.832;60.658;2023-02-28T01:45:00;96452.09;;;2.22;56.42
42727;BME280;28372;56.832;60.658;2023-02-28T01:47:36;96439.78;;;2.17;55.08
42727;BME280;28372;56.832;60.658;2023-02-28T01:50:09;96451.94;;;2.15;54.30
42727;BME280;28372;56.832;60.658;2023-02-28T01:52:39;96451.50;;;2.13;55.32
42727;BME280;28372;56.832;60.658;2023-02-28T01:55:10;96437.81;;;2.14;55.56
42727;BME280;28372;56.832;60.658;2023-02-28T01:57:45;96435.94;;;2.15;56.43
42727;BME280;28372;56.832;60.658;2023-02-28T02:00:18;96442.03;;;2.15;56.08
42727;BME280;28372;56.832;60.658;2023-02-28T02:02:50;96435.00;;;2.07;57.72
42727;BME280;28372;56.832;60.658;2023-02-28T02:05:21;96432.56;;;2.18;54.72
42727;BME280;28372;56.832;60.658;2023-02-28T02:07:54;96426.72;;;2.12;56.94
42727;BME280;28372;56.832;60.658;2023-02-28T02:10:43;96422.44;;;2.27;55.38
42727;BME280;28372;56.832;60.658;2023-02-28T02:21:23;96407.22;;;2.08;59.57
42727;BME280;28372;56.832;60.658;2023-02-28T02:26:58;96397.41;;;2.12;57.75
42727;BME280;28372;56.832;60.658;2023-02-28T02:35:27;96388.78;;;2.19;56.11
42727;BME280;28372;56.832;60.658;2023-02-28T02:38:45;96387.09;;;2.30;55.55
42727;BME280;28372;56.832;60.658;2023-02-28T02:44:02;96381.09;;;2.17;56.67
42727;BME280;28372;56.832;60.658;2023-02-28T02:46:38;96375.09;;;2.20;56.93
42727;BME280;28372;56.832;60.658;2023-02-28T02:49:18;96374.22;;;2.36;54.01
42727;BME280;28372;56.832;60.658;2023-02-28T02:51:48;96368.19;;;2.19;54.95
42727;BME280;28372;56.832;60.658;2023-02-28T02:54:23;96370.09;;;2.19;55.21
42727;BME280;28372;56.832;60.658;2023-02-28T02:57:10;96361.31;;;2.18;55.64
42727;BME280;28372;56.832;60.658;2023-02-28T02:59:40;96373.75;;;2.11;55.50
42727;BME280;28372;56.832;60.658;2023-02-28T03:02:12;96367.63;;;2.10;56.84
42727;BME280;28372;56.832;60.658;2023-02-28T03:05:07;96357.53;;;2.19;56.01
42727;BME280;28372;56.832;60.658;2023-02-28T03:07:36;96365.66;;;2.07;56.24
42727;BME280;28372;56.832;60.658;2023-02-28T03:10:57;96350.00;;;2.25;55.85
42727;BME280;28372;56.832;60.658;2023-02-28T03:16:35;96359.06;;;2.40;54.12
42727;BME280;28372;56.832;60.658;2023-02-28T03:19:15;96347.75;;;2.27;56.63
42727;BME280;28372;56.832;60.658;2023-02-28T03:24:49;96347.69;;;2.43;54.97
42727;BME280;28372;56.832;60.658;2023-02-28T03:28:19;96357.66;;;2.46;55.13
42727;BME280;28372;56.832;60.658;2023-02-28T03:30:57;96347.06;;;2.50;56.25
42727;BME280;28372;56.832;60.658;2023-02-28T03:33:34;96347.25;;;2.41;57.42
42727;BME280;28372;56.832;60.658;2023-02-28T03:36:49;96354.50;;;2.40;56.13
42727;BME280;28372;56.832;60.658;2023-02-28T03:39:05;96353.72;;;2.60;53.55
42727;BME280;28372;56.832;60.658;2023-02-28T03:45:27;96345.25;;;2.57;54.21
42727;BME280;28372;56.832;60.658;2023-02-28T03:47:52;96346.69;;;2.51;54.98
42727;BME280;28372;56.832;60.658;2023-02-28T03:50:41;96341.19;;;2.64;52.95
42727;BME280;28372;56.832;60.658;2023-02-28T03:55:48;96347.38;;;2.48;54.94
42727;BME280;28372;56.832;60.658;2023-02-28T03:58:27;96346.56;;;2.44;56.04
42727;BME280;28372;56.832;60.658;2023-02-28T04:01:07;96349.28;;;2.48;54.56
42727;BME280;28372;56.832;60.658;2023-02-28T04:03:36;96346.56;;;2.44;54.84
42727;BME280;28372;56.832;60.658;2023-02-28T04:06:06;96354.25;;;2.49;55.23
42727;BME280;28372;56.832;60.658;2023-02-28T04:08:35;96341.75;;;2.53;54.88
42727;BME280;28372;56.832;60.658;2023-02-28T04:13:44;96356.66;;;2.54;55.70
42727;BME280;28372;56.832;60.658;2023-02-28T04:16:13;96355.06;;;2.50;55.52
42727;BME280;28372;56.832;60.658;2023-02-28T04:19:01;96364.22;;;2.52;55.33
42727;BME280;28372;56.832;60.658;2023-02-28T04:21:35;96357.50;;;2.59;54.50
42727;BME280;28372;56.832;60.658;2023-02-28T04:24:03;96368.81;;;2.52;54.20
42727;BME280;28372;56.832;60.658;2023-02-28T04:26:33;96373.78;;;2.53;54.48
42727;BME280;28372;56.832;60.658;2023-02-28T04:29:02;96369.88;;;2.47;55.24
42727;BME280;28372;56.832;60.658;2023-02-28T04:31:30;96377.03;;;2.43;56.23
42727;BME280;28372;56.832;60.658;2023-02-28T04:33:59;96364.47;;;2.44;63.37
42727;BME280;28372;56.832;60.658;2023-02-28T04:36:27;96378.72;;;2.51;63.87
42727;BME280;28372;56.832;60.658;2023-02-28T04:38:54;96379.06;;;2.50;64.71
42727;BME280;28372;56.832;60.658;2023-02-28T04:41:23;96379.25;;;2.61;59.61
42727;BME280;28372;56.832;60.658;2023-02-28T04:43:52;96376.22;;;2.62;62.59
42727;BME280;28372;56.832;60.658;2023-02-28T04:46:20;96377.53;;;2.49;63.55
42727;BME280;28372;56.832;60.658;2023-02-28T04:48:48;96370.72;;;2.51;61.63
42727;BME280;28372;56.832;60.658;2023-02-28T04:51:17;96371.59;;;2.59;61.65
42727;BME280;28372;56.832;60.658;2023-02-28T04:53:45;96373.72;;;2.69;57.38
42727;BME280;28372;56.832;60.658;2023-02-28T04:56:15;96368.38;;;2.69;58.57
42727;BME280;28372;56.832;60.658;2023-02-28T04:58:43;96370.72;;;2.74;57.09
42727;BME280;28372;56.832;60.658;2023-02-28T05:03:45;96370.22;;;2.88;56.12
42727;BME280;28372;56.832;60.658;2023-02-28T05:06:13;96375.19;;;2.90;55.98
42727;BME280;28372;56.832;60.658;2023-02-28T05:08:41;96358.13;;;2.95;54.67
42727;BME280;28372;56.832;60.658;2023-02-28T05:11:20;96365.16;;;3.06;57.54
42727;BME280;28372;56.832;60.658;2023-02-28T05:13:48;96357.75;;;2.96;56.58
42727;BME280;28372;56.832;60.658;2023-02-28T05:16:16;96347.94;;;3.04;56.41
42727;BME280;28372;56.832;60.658;2023-02-28T05:18:45;96351.47;;;3.08;56.57
42727;BME280;28372;56.832;60.658;2023-02-28T05:24:02;96351.47;;;3.08;57.21
42727;BME280;28372;56.832;60.658;2023-02-28T05:26:34;96350.50;;;2.97;57.69
42727;BME280;28372;56.832;60.658;2023-02-28T05:29:02;96341.13;;;2.83;56.19
42727;BME280;28372;56.832;60.658;2023-02-28T05:31:29;96336.94;;;2.82;57.52
42727;BME280;28372;56.832;60.658;2023-02-28T05:33:58;96339.06;;;2.96;56.58
42727;BME280;28372;56.832;60.658;2023-02-28T05:36:25;96337.88;;;2.94;56.89
42727;BME280;28372;56.832;60.658;2023-02-28T05:38:53;96333.41;;;3.01;55.56
42727;BME280;28372;56.832;60.658;2023-02-28T05:41:21;96334.78;;;2.91;56.93
42727;BME280;28372;56.832;60.658;2023-02-28T05:43:48;96342.91;;;2.99;57.67
42727;BME280;28372;56.832;60.658;2023-02-28T05:46:16;96339.91;;;3.00;55.97
42727;BME280;28372;56.832;60.658;2023-02-28T05:48:46;96332.34;;;3.06;56.34
42727;BME280;28372;56.832;60.658;2023-02-28T05:51:15;96344.88;;;3.02;55.83
42727;BME280;28372;56.832;60.658;2023-02-28T05:53:43;96344.91;;;3.05;55.33
42727;BME280;28372;56.832;60.658;2023-02-28T05:56:11;96338.94;;;3.12;56.17
42727;BME280;28372;56.832;60.658;2023-02-28T05:58:39;96329.78;;;3.13;57.54
42727;BME280;28372;56.832;60.658;2023-02-28T06:03:53;96324.03;;;3.11;57.14
42727;BME280;28372;56.832;60.658;2023-02-28T06:06:20;96318.63;;;3.07;56.09
42727;BME280;28372;56.832;60.658;2023-02-28T06:08:48;96317.91;;;3.11;57.12
42727;BME280;28372;56.832;60.658;2023-02-28T06:11:16;96307.03;;;3.23;55.04
42727;BME280;28372;56.832;60.658;2023-02-28T06:13:44;96307.97;;;3.34;54.71
42727;BME280;28372;56.832;60.658;2023-02-28T06:16:12;96312.94;;;3.63;56.43
42727;BME280;28372;56.832;60.658;2023-02-28T06:18:39;96312.81;;;3.82;56.12
42727;BME280;28372;56.832;60.658;2023-02-28T06:21:07;96302.72;;;4.02;53.29
42727;BME280;28372;56.832;60.658;2023-02-28T06:23:36;96310.09;;;4.46;56.09
42727;BME280;28372;56.832;60.658;2023-02-28T06:26:04;96309.34;;;4.94;58.85
42727;BME280;28372;56.832;60.658;2023-02-28T06:28:31;96301.56;;;5.27;56.33
42727;BME280;28372;56.832;60.658;2023-02-28T06:30:59;96300.59;;;5.53;51.90
42727;BME280;28372;56.832;60.658;2023-02-28T06:33:27;96306.84;;;5.79;53.41
42727;BME280;28372;56.832;60.658;2023-02-28T06:35:54;96313.16;;;6.12;50.19
42727;BME280;28372;56.832;60.658;2023-02-28T06:38:22;96294.06;;;6.46;50.32
42727;BME280;28372;56.832;60.658;2023-02-28T06:40:58;96306.78;;;6.71;50.33
42727;BME280;28372;56.832;60.658;2023-02-28T06:43:28;96313.31;;;6.98;47.53
42727;BME280;28372;56.832;60.658;2023-02-28T06:45:57;96315.63;;;7.14;46.97
42727;BME280;28372;56.832;60.658;2023-02-28T06:48:26;96315.59;;;7.18;44.53
42727;BME280;28372;56.832;60.658;2023-02-28T06:51:11;96317.91;;;7.30;44.86
42727;BME280;28372;56.832;60.658;2023-02-28T06:53:40;96306.00;;;7.28;42.49
42727;BME280;28372;56.832;60.658;2023-02-28T06:56:16;96304.06;;;7.39;45.32
42727;BME280;28372;56.832;60.658;2023-02-28T06:58:48;96298.72;;;7.35;43.08
42727;BME280;28372;56.832;60.658;2023-02-28T07:01:16;96299.13;;;7.01;42.57
42727;BME280;28372;56.832;60.658;2023-02-28T07:03:45;96291.81;;;6.80;42.91
42727;BME280;28372;56.832;60.658;2023-02-28T07:06:12;96296.41;;;6.73;42.39
42727;BME280;28372;56.832;60.658;2023-02-28T07:08:40;96298.31;;;6.83;43.44
42727;BME280;28372;56.832;60.658;2023-02-28T07:11:08;96301.41;;;6.81;42.60
42727;BME280;28372;56.832;60.658;2023-02-28T07:13:36;96307.13;;;6.62;41.43
42727;BME280;28372;56.832;60.658;2023-02-28T07:16:06;96305.63;;;6.68;42.40
42727;BME280;28372;56.832;60.658;2023-02-28T07:18:34;96311.31;;;6.45;42.43
42727;BME280;28372;56.832;60.658;2023-02-28T07:21:04;96304.41;;;6.40;42.21
42727;BME280;28372;56.832;60.658;2023-02-28T07:23:32;96298.63;;;6.38;42.12
42727;BME280;28372;56.832;60.658;2023-02-28T07:25:59;96285.59;;;6.44;41.81
42727;BME280;28372;56.832;60.658;2023-02-28T07:28:27;96292.88;;;6.32;43.31
42727;BME280;28372;56.832;60.658;2023-02-28T07:30:55;96292.47;;;6.23;41.96
42727;BME280;28372;56.832;60.658;2023-02-28T07:33:22;96294.75;;;6.17;42.69
42727;BME280;28372;56.832;60.658;2023-02-28T07:35:51;96290.91;;;6.08;41.83
42727;BME280;28372;56.832;60.658;2023-02-28T07:38:19;96285.53;;;6.11;43.52
42727;BME280;28372;56.832;60.658;2023-02-28T07:40:46;96280.97;;;6.26;42.49
42727;BME280;28372;56.832;60.658;2023-02-28T07:43:14;96280.22;;;6.26;42.86
42727;BME280;28372;56.832;60.658;2023-02-28T07:45:41;96277.16;;;6.27;42.96
42727;BME280;28372;56.832;60.658;2023-02-28T07:48:09;96261.44;;;6.33;42.56
42727;BME280;28372;56.832;60.658;2023-02-28T07:50:37;96264.91;;;6.48;42.56
42727;BME280;28372;56.832;60.658;2023-02-28T07:53:05;96271.44;;;6.50;43.31
42727;BME280;28372;56.832;60.658;2023-02-28T07:55:32;96256.88;;;6.55;42.75
42727;BME280;28372;56.832;60.658;2023-02-28T07:58:00;96255.34;;;6.65;43.21
42727;BME280;28372;56.832;60.658;2023-02-28T08:00:28;96257.25;;;6.64;42.90
42727;BME280;28372;56.832;60.658;2023-02-28T08:02:56;96248.81;;;6.66;41.99
42727;BME280;28372;56.832;60.658;2023-02-28T08:05:23;96247.28;;;6.61;40.93
42727;BME280;28372;56.832;60.658;2023-02-28T08:07:51;96258.78;;;6.58;41.57
42727;BME280;28372;56.832;60.658;2023-02-28T08:10:20;96242.66;;;6.62;41.66
42727;BME280;28372;56.832;60.658;2023-02-28T08:12:48;96252.66;;;6.68;43.17
42727;BME280;28372;56.832;60.658;2023-02-28T08:15:15;96241.53;;;6.74;41.89
42727;BME280;28372;56.832;60.658;2023-02-28T08:17:43;96240.38;;;6.64;41.77
42727;BME280;28372;56.832;60.658;2023-02-28T08:20:11;96244.19;;;6.48;41.10
42727;BME280;28372;56.832;60.658;2023-02-28T08:22:38;96247.28;;;6.54;40.84
42727;BME280;28372;56.832;60.658;2023-02-28T08:25:06;96251.47;;;6.51;42.06
42727;BME280;28372;56.832;60.658;2023-02-28T08:27:35;96241.13;;;6.57;41.55
42727;BME280;28372;56.832;60.658;2023-02-28T08:30:03;96251.88;;;6.68;41.39
42727;BME280;28372;56.832;60.658;2023-02-28T08:32:33;96250.31;;;6.56;42.37
42727;BME280;28372;56.832;60.658;2023-02-28T08:35:00;96246.50;;;6.50;40.73
42727;BME280;28372;56.832;60.658;2023-02-28T08:37:30;96235.75;;;6.36;40.43
42727;BME280;28372;56.832;60.658;2023-02-28T08:39:58;96242.66;;;6.40;40.54
42727;BME280;28372;56.832;60.658;2023-02-28T08:42:25;96245.72;;;6.31;39.86
42727;BME280;28372;56.832;60.658;2023-02-28T08:44:53;96223.44;;;6.24;40.82
42727;BME280;28372;56.832;60.658;2023-02-28T08:47:20;96220.75;;;6.20;39.78
42727;BME280;28372;56.832;60.658;2023-02-28T08:49:48;96221.13;;;6.15;39.66
42727;BME280;28372;56.832;60.658;2023-02-28T08:52:15;96226.13;;;6.20;39.69
42727;BME280;28372;56.832;60.658;2023-02-28T08:54:43;96218.03;;;6.06;39.11
42727;BME280;28372;56.832;60.658;2023-02-28T08:57:11;96216.44;;;5.94;40.34
42727;BME280;28372;56.832;60.658;2023-02-28T08:59:38;96211.47;;;5.92;39.89
42727;BME280;28372;56.832;60.658;2023-02-28T09:02:07;96202.31;;;6.00;40.16
42727;BME280;28372;56.832;60.658;2023-02-28T09:04:35;96204.63;;;6.09;39.84
42727;BME280;28372;56.832;60.658;2023-02-28T09:07:03;96204.56;;;5.95;39.69
42727;BME280;28372;56.832;60.658;2023-02-28T09:09:30;96197.66;;;5.87;41.11
42727;BME280;28372;56.832;60.658;2023-02-28T09:11:58;96204.13;;;5.78;40.78
42727;BME280;28372;56.832;60.658;2023-02-28T09:14:26;96204.09;;;5.68;40.36
42727;BME280;28372;56.832;60.658;2023-02-28T09:16:54;96199.47;;;5.61;41.89
42727;BME280;28372;56.832;60.658;2023-02-28T09:19:22;96210.97;;;5.65;42.51
42727;BME280;28372;56.832;60.658;2023-02-28T09:21:49;96208.25;;;5.51;41.42
42727;BME280;28372;56.832;60.658;2023-02-28T09:24:17;96202.50;;;5.48;41.48
42727;BME280;28372;56.832;60.658;2023-02-28T09:26:45;96201.34;;;5.53;41.31
42727;BME280;28372;56.832;60.658;2023-02-28T09:29:30;96191.09;;;5.70;41.35
42727;BME280;28372;56.832;60.658;2023-02-28T09:31:58;96183.34;;;5.50;41.49
42727;BME280;28372;56.832;60.658;2023-02-28T09:34:27;96179.09;;;5.42;41.09
42727;BME280;28372;56.832;60.658;2023-02-28T09:36:55;96174.44;;;5.28;40.50
42727;BME280;28372;56.832;60.658;2023-02-28T09:39:23;96162.88;;;5.13;41.95
42727;BME280;28372;56.832;60.658;2023-02-28T09:41:52;96164.84;;;5.23;41.63
42727;BME280;28372;56.832;60.658;2023-02-28T09:47:32;96158.78;;;5.41;43.16
42727;BME280;28372;56.832;60.658;2023-02-28T09:53:42;96149.97;;;5.40;43.46
42727;BME280;28372;56.832;60.658;2023-02-28T09:56:20;96136.50;;;5.22;42.77
42727;BME280;28372;56.832;60.658;2023-02-28T09:59:02;96128.09;;;5.27;42.70
42727;BME280;28372;56.832;60.658;2023-02-28T10:09:53;96119.19;;;5.02;41.77
42727;BME280;28372;56.832;60.658;2023-02-28T10:12:22;96131.81;;;5.01;41.94
42727;BME280;28372;56.832;60.658;2023-02-28T10:14:53;96129.47;;;4.92;42.64
42727;BME280;28372;56.832;60.658;2023-02-28T10:17:36;96131.41;;;4.95;42.81
42727;BME280;28372;56.832;60.658;2023-02-28T10:20:22;96128.31;;;4.90;42.51
42727;BME280;28372;56.832;60.658;2023-02-28T10:25:57;96119.94;;;4.98;43.13
42727;BME280;28372;56.832;60.658;2023-02-28T10:28:32;96111.50;;;4.96;42.36
42727;BME280;28372;56.832;60.658;2023-02-28T10:31:00;96107.19;;;4.77;41.93
42727;BME280;28372;56.832;60.658;2023-02-28T10:33:35;96094.66;;;4.92;44.15
42727;BME280;28372;56.832;60.658;2023-02-28T10:36:04;96101.91;;;4.88;43.03
42727;BME280;28372;56.832;60.658;2023-02-28T10:38:36;96104.09;;;4.75;42.66
42727;BME280;28372;56.832;60.658;2023-02-28T10:43:35;96094.19;;;4.79;42.01
42727;BME280;28372;56.832;60.658;2023-02-28T10:49:01;96083.59;;;5.01;44.06
42727;BME280;28372;56.832;60.658;2023-02-28T10:51:38;96079.78;;;5.06;43.45
42727;BME280;28372;56.832;60.658;2023-02-28T10:54:16;96068.31;;;5.12;43.05
42727;BME280;28372;56.832;60.658;2023-02-28T10:56:43;96070.19;;;5.01;42.11
42727;BME280;28372;56.832;60.658;2023-02-28T11:01:46;96069.00;;;4.95;41.62
42727;BME280;28372;56.832;60.658;2023-02-28T11:09:30;96069.75;;;4.88;42.48
42727;BME280;28372;56.832;60.658;2023-02-28T11:11:58;96060.50;;;4.75;42.51
42727;BME280;28372;56.832;60.658;2023-02-28T11:14:32;96054.41;;;4.82;42.44
42727;BME280;28372;56.832;60.658;2023-02-28T11:17:14;96064.31;;;4.74;42.38
42727;BME280;28372;56.832;60.658;2023-02-28T11:19:48;96054.00;;;4.76;42.11
42727;BME280;28372;56.832;60.658;2023-02-28T11:22:23;96053.19;;;4.68;42.36
42727;BME280;28372;56.832;60.658;2023-02-28T11:24:55;96040.94;;;4.63;42.16
42727;BME280;28372;56.832;60.658;2023-02-28T11:29:58;96044.38;;;4.60;42.24
42727;BME280;28372;56.832;60.658;2023-02-28T11:32:28;96037.09;;;4.61;41.96
42727;BME280;28372;56.832;60.658;2023-02-28T11:35:04;96039.00;;;4.64;42.55
42727;BME280;28372;56.832;60.658;2023-02-28T11:37:32;96033.63;;;4.53;41.31
42727;BME280;28372;56.832;60.658;2023-02-28T11:40:00;96032.84;;;4.53;41.97
42727;BME280;28372;56.832;60.658;2023-02-28T11:51:14;96006.16;;;4.67;42.99
42727;BME280;28372;56.832;60.658;2023-02-28T12:04:12;95989.28;;;4.59;42.82
42727;BME280;28372;56.832;60.658;2023-02-28T12:11:51;95952.13;;;4.43;42.86
42727;BME280;28372;56.832;60.658;2023-02-28T12:29:29;95940.44;;;4.03;43.29
42727;BME280;28372;56.832;60.658;2023-02-28T12:32:16;95936.97;;;3.96;42.82
42727;BME280;28372;56.832;60.658;2023-02-28T12:34:56;95941.84;;;3.83;43.11
42727;BME280;28372;56.832;60.658;2023-02-28T12:37:46;95935.31;;;3.80;42.56
42727;BME280;28372;56.832;60.658;2023-02-28T12:40:23;95932.97;;;3.68;43.64
42727;BME280;28372;56.832;60.658;2023-02-28T12:43:04;95932.22;;;3.71;42.94
42727;BME280;28372;56.832;60.658;2023-02-28T12:45:48;95929.84;;;3.58;43.19
42727;BME280;28372;56.832;60.658;2023-02-28T12:48:29;95939.81;;;3.65;43.98
42727;BME280;28372;56.832;60.658;2023-02-28T12:50:59;95928.25;;;3.50;43.27
42727;BME280;28372;56.832;60.658;2023-02-28T12:59:13;95929.63;;;3.30;43.31
42727;BME280;28372;56.832;60.658;2023-02-28T13:10:07;95921.53;;;3.19;43.64
42727;BME280;28372;56.832;60.658;2023-02-28T13:12:35;95919.66;;;3.26;42.37
42727;BME280;28372;56.832;60.658;2023-02-28T13:15:16;95912.00;;;3.25;43.93
42727;BME280;28372;56.832;60.658;2023-02-28T13:17:52;95903.06;;;3.51;42.92
42727;BME280;28372;56.832;60.658;2023-02-28T13:20:24;95916.44;;;3.55;43.33
42727;BME280;28372;56.832;60.658;2023-02-28T13:22:54;95914.84;;;3.43;42.89
42727;BME280;28372;56.832;60.658;2023-02-28T13:27:53;95912.28;;;3.13;43.19
42727;BME280;28372;56.832;60.658;2023-02-28T13:36:10;95893.94;;;3.07;42.84
42727;BME280;28372;56.832;60.658;2023-02-28T13:38:43;95875.03;;;2.86;42.92
42727;BME280;28372;56.832;60.658;2023-02-28T13:44:19;95880.88;;;2.99;43.79
42727;BME280;28372;56.832;60.658;2023-02-28T13:54:56;95862.75;;;2.78;43.57
42727;BME280;28372;56.832;60.658;2023-02-28T14:03:36;95869.84;;;2.59;44.47
42727;BME280;28372;56.832;60.658;2023-02-28T14:09:06;95828.00;;;2.29;44.00
42727;BME280;28372;56.832;60.658;2023-02-28T14:11:45;95860.16;;;2.44;42.97
42727;BME280;28372;56.832;60.658;2023-02-28T14:17:05;95833.28;;;2.26;44.59
42727;BME280;28372;56.832;60.658;2023-02-28T14:19:36;95848.91;;;2.23;45.19
42727;BME280;28372;56.832;60.658;2023-02-28T14:25:14;95841.69;;;2.28;44.50
42727;BME280;28372;56.832;60.658;2023-02-28T14:30:57;95841.72;;;2.31;44.07
42727;BME280;28372;56.832;60.658;2023-02-28T14:36:22;95824.53;;;2.25;43.92
42727;BME280;28372;56.832;60.658;2023-02-28T14:38:55;95811.00;;;2.07;44.79
42727;BME280;28372;56.832;60.658;2023-02-28T14:41:31;95820.53;;;2.08;46.00
42727;BME280;28372;56.832;60.658;2023-02-28T14:44:00;95813.72;;;2.11;44.64
42727;BME280;28372;56.832;60.658;2023-02-28T14:46:39;95813.28;;;2.09;44.25
42727;BME280;28372;56.832;60.658;2023-02-28T14:49:27;95807.16;;;2.04;44.01
42727;BME280;28372;56.832;60.658;2023-02-28T14:52:21;95823.94;;;2.05;44.24
42727;BME280;28372;56.832;60.658;2023-02-28T14:55:00;95809.72;;;1.97;43.84
42727;BME280;28372;56.832;60.658;2023-02-28T14:57:40;95821.56;;;2.00;43.94
42727;BME280;28372;56.832;60.658;2023-02-28T15:00:30;95789.59;;;2.00;43.69
42727;BME280;28372;56.832;60.658;2023-02-28T15:03:00;95812.72;;;1.92;43.76
42727;BME280;28372;56.832;60.658;2023-02-28T15:05:34;95807.84;;;1.98;43.77
42727;BME280;28372;56.832;60.658;2023-02-28T15:10:33;95793.06;;;1.70;43.32
42727;BME280;28372;56.832;60.658;2023-02-28T15:13:13;95800.47;;;1.84;44.01
42727;BME280;28372;56.832;60.658;2023-02-28T15:16:03;95792.81;;;1.52;44.71
42727;BME280;28372;56.832;60.658;2023-02-28T15:21:23;95784.19;;;1.62;44.36
42727;BME280;28372;56.832;60.658;2023-02-28T15:26:22;95786.13;;;1.65;44.63
42727;BME280;28372;56.832;60.658;2023-02-28T15:28:58;95776.97;;;1.63;44.64
42727;BME280;28372;56.832;60.658;2023-02-28T15:31:29;95776.25;;;1.66;44.15
42727;BME280;28372;56.832;60.658;2023-02-28T15:34:26;95759.66;;;1.80;44.32
42727;BME280;28372;56.832;60.658;2023-02-28T15:40:17;95764.25;;;1.83;43.90
42727;BME280;28372;56.832;60.658;2023-02-28T15:43:12;95763.16;;;1.87;43.72
42727;BME280;28372;56.832;60.658;2023-02-28T15:45:47;95768.69;;;1.71;43.70
42727;BME280;28372;56.832;60.658;2023-02-28T15:48:20;95766.72;;;1.65;44.12
42727;BME280;28372;56.832;60.658;2023-02-28T15:50:52;95739.16;;;1.84;43.53
42727;BME280;28372;56.832;60.658;2023-02-28T15:53:27;95742.41;;;1.70;43.83
42727;BME280;28372;56.832;60.658;2023-02-28T15:56:04;95720.31;;;1.69;44.28
42727;BME280;28372;56.832;60.658;2023-02-28T15:58:35;95715.19;;;1.53;43.92
42727;BME280;28372;56.832;60.658;2023-02-28T16:03:48;95732.56;;;1.74;44.01
42727;BME280;28372;56.832;60.658;2023-02-28T16:08:44;95725.44;;;1.51;44.38
42727;BME280;28372;56.832;60.658;2023-02-28T16:11:17;95739.50;;;1.48;44.60
42727;BME280;28372;56.832;60.658;2023-02-28T16:13:46;95745.59;;;1.49;44.77
42727;BME280;28372;56.832;60.658;2023-02-28T16:16:18;95745.69;;;1.56;44.04
42727;BME280;28372;56.832;60.658;2023-02-28T16:18:46;95738.28;;;1.42;43.92
42727;BME280;28372;56.832;60.658;2023-02-28T16:21:14;95728.06;;;1.48;43.82
42727;BME280;28372;56.832;60.658;2023-02-28T16:23:42;95718.38;;;1.66;43.51
42727;BME280;28372;56.832;60.658;2023-02-28T16:26:22;95721.06;;;1.66;43.71
42727;BME280;28372;56.832;60.658;2023-02-28T16:28:51;95729.56;;;1.45;44.07
42727;BME280;28372;56.832;60.658;2023-02-28T16:31:19;95733.16;;;1.60;43.71